Time;durP1;ratioP1;P1;durP2;ratioP2;P2;SDS_P1;SDS_P2;PMS_P1;PMS_P2;Temp;Humidity;BMP_temperature;BMP_pressure;BME280_temperature;BME280_humidity;BME280_pressure;Samples;Min_cycle;Max_cycle;Signal;HPM_P1;HPM_P2
2023/06/04 00:01:05;;;;;;;0.20;0.20;;;12.70;99.90;;;;;;5087310;28;20028;-44
2023/06/04 00:03:31;;;;;;;0.10;0.10;;;12.70;99.90;;;;;;5090086;28;20027;-46
2023/06/04 00:05:56;;;;;;;0.10;0.10;;;12.70;99.90;;;;;;5090125;28;20020;-42
2023/06/04 00:08:22;;;;;;;0.20;0.20;;;12.70;99.90;;;;;;5090041;28;20405;-44
2023/06/04 00:10:48;;;;;;;0.20;0.20;;;12.70;99.90;;;;;;5092124;28;20071;-45
2023/06/04 00:13:14;;;;;;;0.20;0.20;;;12.70;99.90;;;;;;5093338;28;20052;-45
2023/06/04 00:15:39;;;;;;;0.10;0.10;;;12.60;99.90;;;;;;5093575;28;20031;-48
2023/06/04 00:18:05;;;;;;;0.10;0.10;;;12.60;99.90;;;;;;5093409;28;20039;-43
2023/06/04 00:20:31;;;;;;;0.20;0.20;;;12.70;99.90;;;;;;5093477;28;20048;-47
2023/06/04 00:22:56;;;;;;;0.20;0.20;;;12.70;99.90;;;;;;5093373;28;20020;-40
2023/06/04 00:25:22;;;;;;;0.15;0.15;;;12.60;99.90;;;;;;5093299;28;20043;-48
2023/06/04 00:27:48;;;;;;;0.20;0.20;;;12.60;99.90;;;;;;5079041;28;20033;-51
2023/06/04 00:30:14;;;;;;;0.20;0.20;;;12.60;99.90;;;;;;5086945;28;20054;-40
2023/06/04 00:32:40;;;;;;;0.10;0.10;;;12.60;99.90;;;;;;5093299;28;20453;-45
2023/06/04 00:35:06;;;;;;;0.20;0.20;;;12.70;99.90;;;;;;5093428;28;20059;-55
2023/06/04 00:37:32;;;;;;;0.20;0.20;;;12.60;99.90;;;;;;5093159;28;20075;-41
2023/06/04 00:39:58;;;;;;;0.13;0.13;;;12.60;99.90;;;;;;5093192;28;20056;-52
2023/06/04 00:42:24;;;;;;;0.10;0.10;;;12.60;99.90;;;;;;5093037;28;20428;-47
2023/06/04 00:44:50;;;;;;;0.20;0.20;;;12.60;99.90;;;;;;5092695;28;20134;-45
2023/06/04 00:47:16;;;;;;;0.10;0.10;;;12.60;99.90;;;;;;5092750;28;20066;-44
2023/06/04 00:49:42;;;;;;;0.10;0.10;;;12.60;99.90;;;;;;5092993;28;20040;-45
2023/06/04 00:52:09;;;;;;;0.10;0.10;;;12.60;99.90;;;;;;5093037;28;20028;-41
2023/06/04 00:54:36;;;;;;;0.10;0.10;;;12.60;99.90;;;;;;5092601;28;20545;-43
2023/06/04 00:57:01;;;;;;;0.20;0.20;;;12.60;99.90;;;;;;5087320;28;20020;-42
2023/06/04 00:59:29;;;;;;;0.20;0.20;;;12.60;99.90;;;;;;5090585;28;20153;-45
2023/06/04 01:02:09;;;;;;;0.20;0.20;;;12.60;99.90;;;;;;5092605;28;20487;-43
2023/06/04 01:05:02;;;;;;;0.10;0.10;;;12.60;99.90;;;;;;5092715;28;20028;-44
2023/06/04 01:07:29;;;;;;;0.17;0.17;;;12.60;99.90;;;;;;5092619;28;20047;-42
2023/06/04 01:09:55;;;;;;;0.20;0.20;;;12.60;99.90;;;;;;5092176;28;20490;-53
2023/06/04 01:12:20;;;;;;;0.10;0.10;;;12.50;99.90;;;;;;5092571;28;20024;-49
2023/06/04 01:14:46;;;;;;;0.10;0.10;;;12.50;99.90;;;;;;5092447;28;20032;-40
2023/06/04 01:17:20;;;;;;;0.20;0.20;;;12.50;99.90;;;;;;5092481;28;20027;-48
2023/06/04 01:20:04;;;;;;;0.20;0.20;;;12.40;99.90;;;;;;5092516;28;20471;-43
2023/06/04 01:22:36;;;;;;;0.90;0.52;;;12.50;99.90;;;;;;5091731;28;20443;-50
2023/06/04 01:25:18;;;;;;;0.10;0.10;;;12.40;99.90;;;;;;5092278;28;20028;-53
2023/06/04 01:27:46;;;;;;;0.20;0.20;;;12.40;99.90;;;;;;5082721;28;20028;-51
2023/06/04 01:30:13;;;;;;;0.10;0.10;;;12.40;99.90;;;;;;5086983;28;20113;-45
2023/06/04 01:32:39;;;;;;;0.20;0.20;;;12.30;99.90;;;;;;5092200;28;20032;-43
2023/06/04 01:35:11;;;;;;;0.10;0.10;;;12.30;99.90;;;;;;5091933;28;20089;-52
2023/06/04 01:37:36;;;;;;;0.20;0.20;;;12.30;99.90;;;;;;5092217;28;20017;-51
2023/06/04 01:40:03;;;;;;;0.10;0.10;;;12.30;99.90;;;;;;5091846;28;20398;-45
2023/06/04 01:42:28;;;;;;;0.10;0.10;;;12.20;99.90;;;;;;5091685;28;20024;-47
2023/06/04 01:44:54;;;;;;;0.20;0.20;;;12.20;99.90;;;;;;5091764;28;20051;-48
2023/06/04 01:47:20;;;;;;;0.35;0.35;;;12.20;99.90;;;;;;5091455;28;20533;-44
2023/06/04 01:49:46;;;;;;;0.10;0.10;;;12.20;99.90;;;;;;5091747;28;20040;-52
2023/06/04 01:52:11;;;;;;;0.20;0.20;;;12.10;99.90;;;;;;5091686;28;20031;-52
2023/06/04 01:54:38;;;;;;;0.10;0.10;;;12.10;99.90;;;;;;5091911;28;20020;-50
2023/06/04 01:57:05;;;;;;;0.10;0.10;;;12.10;99.90;;;;;;5086146;28;20054;-50
2023/06/04 01:59:31;;;;;;;0.10;0.10;;;12.10;99.90;;;;;;5090101;28;20028;-40
2023/06/04 02:01:57;;;;;;;0.20;0.20;;;12.10;99.90;;;;;;5091333;28;20471;-47
2023/06/04 02:04:23;;;;;;;0.20;0.20;;;12.00;99.90;;;;;;5091717;28;20024;-46
2023/06/04 02:06:50;;;;;;;0.10;0.10;;;12.00;99.90;;;;;;5091487;28;20406;-49
2023/06/04 02:09:15;;;;;;;0.20;0.20;;;12.10;99.90;;;;;;5091465;28;20034;-52
2023/06/04 02:11:41;;;;;;;0.10;0.10;;;12.00;99.90;;;;;;5091318;28;20031;-44
2023/06/04 02:14:07;;;;;;;0.20;0.20;;;12.00;99.90;;;;;;5091500;28;20526;-50
2023/06/04 02:16:32;;;;;;;0.20;0.20;;;12.00;99.90;;;;;;5091238;28;20028;-55
2023/06/04 02:18:59;;;;;;;0.20;0.20;;;11.90;99.90;;;;;;5091470;28;20107;-49
2023/06/04 02:21:24;;;;;;;0.20;0.20;;;11.90;99.90;;;;;;5091490;28;20090;-41
2023/06/04 02:23:50;;;;;;;0.20;0.20;;;11.90;99.90;;;;;;5091118;28;20435;-47
2023/06/04 02:26:16;;;;;;;0.20;0.20;;;11.90;99.90;;;;;;5091182;28;20016;-50
2023/06/04 02:28:41;;;;;;;0.20;0.20;;;11.80;99.90;;;;;;5089190;28;20445;-46
2023/06/04 02:31:07;;;;;;;0.20;0.20;;;11.80;99.90;;;;;;5090907;28;20494;-52
2023/06/04 02:33:33;;;;;;;0.17;0.17;;;11.80;99.90;;;;;;5090259;28;20405;-48
2023/06/04 02:35:58;;;;;;;0.20;0.20;;;11.80;99.90;;;;;;5090981;28;20028;-45
2023/06/04 02:38:24;;;;;;;0.13;0.13;;;11.80;99.90;;;;;;5091041;28;20046;-48
2023/06/04 02:40:49;;;;;;;0.20;0.20;;;11.80;99.90;;;;;;5090960;28;20031;-47
2023/06/04 02:43:15;;;;;;;0.10;0.10;;;11.70;99.90;;;;;;5090990;28;20038;-49
2023/06/04 02:45:41;;;;;;;0.20;0.20;;;11.80;99.90;;;;;;5090486;28;20055;-43
2023/06/04 02:48:06;;;;;;;0.20;0.20;;;11.70;99.90;;;;;;5090886;28;20024;-52
2023/06/04 02:50:32;;;;;;;0.20;0.20;;;11.70;99.90;;;;;;5090471;28;20043;-40
2023/06/04 02:52:58;;;;;;;0.10;0.10;;;11.70;99.90;;;;;;5090801;28;20032;-49
2023/06/04 02:55:23;;;;;;;0.10;0.10;;;11.60;99.90;;;;;;5079125;28;20161;-45
2023/06/04 02:57:51;;;;;;;0.20;0.20;;;11.60;99.90;;;;;;5089201;28;20020;-54
2023/06/04 03:00:17;;;;;;;0.13;0.13;;;11.60;99.90;;;;;;5090628;28;20028;-50
2023/06/04 03:02:46;;;;;;;0.10;0.10;;;11.60;99.90;;;;;;5088130;28;20182;-42
2023/06/04 03:05:13;;;;;;;0.17;0.17;;;11.60;99.90;;;;;;5090491;28;20360;-47
2023/06/04 03:07:43;;;;;;;0.20;0.20;;;11.60;99.90;;;;;;5087612;28;20532;-50
2023/06/04 03:10:09;;;;;;;0.20;0.20;;;11.50;99.90;;;;;;5090548;28;20066;-42
2023/06/04 03:12:35;;;;;;;0.17;0.17;;;11.50;99.90;;;;;;5086627;28;20078;-49
2023/06/04 03:15:01;;;;;;;0.10;0.10;;;11.50;99.90;;;;;;5090236;28;20024;-49
2023/06/04 03:17:27;;;;;;;0.10;0.10;;;11.50;99.90;;;;;;5085596;28;20031;-55
2023/06/04 03:19:52;;;;;;;0.20;0.20;;;11.50;99.90;;;;;;5090223;28;20024;-45
2023/06/04 03:22:18;;;;;;;0.20;0.20;;;11.50;99.90;;;;;;5079287;28;20035;-50
2023/06/04 03:24:44;;;;;;;0.10;0.10;;;11.50;99.90;;;;;;5070537;28;20016;-46
2023/06/04 03:27:10;;;;;;;0.20;0.20;;;11.50;99.90;;;;;;5069972;28;20045;-39
2023/06/04 03:29:37;;;;;;;0.20;0.20;;;11.40;99.90;;;;;;5069783;28;20044;-39
2023/06/04 03:32:02;;;;;;;0.20;0.20;;;11.40;99.90;;;;;;5069711;28;20029;-39
2023/06/04 03:34:32;;;;;;;0.20;0.20;;;11.40;99.90;;;;;;5070145;28;20020;-40
2023/06/04 03:36:58;;;;;;;0.15;0.15;;;11.40;99.90;;;;;;5069746;28;20036;-42
2023/06/04 03:39:23;;;;;;;0.20;0.20;;;11.30;99.90;;;;;;5069833;28;20024;-41
2023/06/04 03:41:49;;;;;;;0.10;0.10;;;11.40;99.90;;;;;;5069725;28;20040;-42
2023/06/04 03:44:16;;;;;;;0.20;0.20;;;11.30;99.90;;;;;;5069592;28;20573;-48
2023/06/04 03:46:43;;;;;;;0.20;0.20;;;11.30;99.90;;;;;;5064623;28;20108;-45
2023/06/04 03:49:10;;;;;;;0.20;0.20;;;11.30;99.90;;;;;;5073890;28;20024;-40
2023/06/04 03:51:37;;;;;;;0.15;0.15;;;11.30;99.90;;;;;;5073601;28;20060;-46
2023/06/04 03:54:02;;;;;;;0.20;0.20;;;11.30;99.90;;;;;;5073563;28;20384;-43
2023/06/04 03:56:28;;;;;;;0.10;0.10;;;11.30;99.90;;;;;;5073127;28;20031;-46
2023/06/04 03:58:54;;;;;;;0.10;0.10;;;11.30;99.90;;;;;;5072842;28;20059;-46
2023/06/04 04:01:20;;;;;;;0.20;0.20;;;11.20;99.90;;;;;;5073374;28;20544;-41
2023/06/04 04:03:49;;;;;;;0.20;0.20;;;11.20;99.90;;;;;;5073514;28;20056;-53
2023/06/04 04:06:14;;;;;;;0.20;0.20;;;11.30;99.90;;;;;;5073586;28;20436;-39
2023/06/04 04:08:42;;;;;;;0.10;0.10;;;11.20;99.90;;;;;;5070232;28;20078;-50
2023/06/04 04:11:08;;;;;;;0.10;0.10;;;11.20;99.90;;;;;;5073098;28;20558;-40
2023/06/04 04:13:34;;;;;;;0.20;0.20;;;11.20;99.90;;;;;;5062889;28;20495;-40
2023/06/04 04:16:00;;;;;;;0.20;0.20;;;11.20;99.90;;;;;;5072812;28;20037;-45
2023/06/04 04:18:26;;;;;;;0.20;0.20;;;11.20;99.90;;;;;;5072899;28;20081;-41
2023/06/04 04:20:51;;;;;;;0.20;0.20;;;11.30;99.90;;;;;;5072738;28;20032;-46
2023/06/04 04:23:17;;;;;;;0.10;0.10;;;11.30;99.90;;;;;;5063785;28;20064;-44
2023/06/04 04:25:48;;;;;;;0.10;0.10;;;11.30;99.90;;;;;;5065423;28;20021;-48
2023/06/04 04:28:14;;;;;;;0.20;0.20;;;11.40;99.90;;;;;;5066192;28;20112;-49
2023/06/04 04:30:40;;;;;;;0.10;0.10;;;11.40;99.90;;;;;;5060504;28;20107;-40
2023/06/04 04:33:06;;;;;;;0.10;0.10;;;11.50;99.90;;;;;;5071462;28;20032;-43
2023/06/04 04:35:32;;;;;;;0.10;0.10;;;11.50;99.90;;;;;;5072747;28;20025;-40
2023/06/04 04:38:03;;;;;;;0.20;0.20;;;11.50;99.90;;;;;;5073035;28;20490;-45
2023/06/04 04:40:29;;;;;;;0.20;0.20;;;11.50;99.90;;;;;;5072554;28;20112;-44
2023/06/04 04:42:55;;;;;;;0.20;0.20;;;11.50;99.90;;;;;;5071298;28;20024;-51
2023/06/04 04:45:20;;;;;;;0.20;0.20;;;11.50;99.90;;;;;;5072425;28;20063;-46
2023/06/04 04:47:46;;;;;;;0.20;0.20;;;11.60;99.90;;;;;;5063335;28;20047;-49
2023/06/04 04:50:12;;;;;;;0.10;0.10;;;11.60;99.90;;;;;;5070280;28;20506;-39
2023/06/04 04:52:38;;;;;;;0.20;0.20;;;11.60;99.90;;;;;;5071635;28;20035;-40
2023/06/04 04:55:04;;;;;;;0.20;0.20;;;11.70;99.90;;;;;;5072544;28;20028;-44
2023/06/04 04:57:30;;;;;;;0.20;0.20;;;11.90;99.90;;;;;;5069210;28;20032;-46
2023/06/04 04:59:56;;;;;;;0.10;0.10;;;12.10;99.90;;;;;;5070977;28;20024;-40
2023/06/04 05:02:22;;;;;;;0.20;0.20;;;12.40;99.90;;;;;;5071888;28;20418;-40
2023/06/04 05:04:47;;;;;;;0.15;0.15;;;12.60;99.90;;;;;;5071508;28;20033;-47
2023/06/04 05:07:13;;;;;;;0.20;0.20;;;12.60;99.90;;;;;;5072545;28;20024;-46
2023/06/04 05:09:40;;;;;;;0.20;0.20;;;12.70;99.90;;;;;;5072086;28;20023;-49
2023/06/04 05:12:06;;;;;;;0.20;0.20;;;12.70;99.90;;;;;;5072218;28;20033;-39
2023/06/04 05:14:32;;;;;;;0.20;0.20;;;12.70;99.90;;;;;;5072423;28;20063;-42
2023/06/04 05:16:58;;;;;;;0.10;0.10;;;12.70;99.90;;;;;;5072443;28;20056;-49
2023/06/04 05:19:24;;;;;;;0.10;0.10;;;12.80;99.90;;;;;;5072159;28;20032;-39
2023/06/04 05:21:50;;;;;;;0.10;0.10;;;12.80;99.90;;;;;;5070837;28;20395;-39
2023/06/04 05:24:16;;;;;;;0.10;0.10;;;12.90;99.90;;;;;;5070236;28;20028;-42
2023/06/04 05:26:42;;;;;;;0.10;0.10;;;12.90;99.90;;;;;;5070200;28;20036;-41
2023/06/04 05:29:07;;;;;;;0.20;0.20;;;13.00;99.90;;;;;;5070226;28;20024;-46
2023/06/04 05:31:34;;;;;;;0.20;0.20;;;13.10;99.90;;;;;;5070111;28;20047;-50
2023/06/04 05:34:06;;;;;;;0.10;0.10;;;13.10;99.90;;;;;;5070159;28;20111;-47
2023/06/04 05:36:32;;;;;;;0.10;0.10;;;13.10;99.90;;;;;;5071188;28;20035;-48
2023/06/04 05:38:57;;;;;;;0.10;0.10;;;13.20;99.90;;;;;;5071892;28;20024;-39
2023/06/04 05:41:27;;;;;;;0.10;0.10;;;13.40;99.90;;;;;;5072114;28;20143;-46
2023/06/04 05:43:53;;;;;;;;;;;13.60;99.90;;;;;;5072271;28;20027;-46
2023/06/04 05:46:18;;;;;;;0.20;0.20;;;13.80;99.90;;;;;;5071837;28;20294;-46
2023/06/04 05:48:44;;;;;;;0.10;0.10;;;14.00;99.90;;;;;;5071687;28;20021;-53
2023/06/04 05:51:10;;;;;;;0.10;0.10;;;14.40;99.90;;;;;;5071607;28;20041;-47
2023/06/04 05:53:36;;;;;;;0.10;0.10;;;15.00;99.90;;;;;;5071472;28;20028;-53
2023/06/04 05:56:01;;;;;;;0.10;0.10;;;15.80;99.90;;;;;;5071538;28;20123;-47
2023/06/04 05:58:27;;;;;;;0.10;0.10;;;16.60;99.90;;;;;;5071667;28;20092;-47
2023/06/04 06:00:53;;;;;;;0.10;0.10;;;17.20;99.90;;;;;;5071216;28;20029;-46
2023/06/04 06:03:19;;;;;;;0.10;0.10;;;17.80;99.90;;;;;;5071261;28;20454;-47
2023/06/04 06:05:44;;;;;;;0.10;0.10;;;18.30;99.90;;;;;;5071047;28;20025;-49
2023/06/04 06:08:10;;;;;;;0.10;0.10;;;18.90;99.90;;;;;;5071373;28;20344;-47
2023/06/04 06:10:36;;;;;;;0.10;0.10;;;19.50;99.90;;;;;;5071390;28;20051;-41
2023/06/04 06:13:02;;;;;;;0.10;0.10;;;19.70;99.90;;;;;;5071319;28;20387;-43
2023/06/04 06:15:28;;;;;;;0.10;0.10;;;20.10;99.90;;;;;;5071161;28;20077;-46
2023/06/04 06:17:54;;;;;;;0.10;0.10;;;20.50;99.90;;;;;;5069856;28;20428;-40
2023/06/04 06:20:21;;;;;;;0.10;0.10;;;20.50;99.90;;;;;;5071067;28;20035;-52
2023/06/04 06:22:48;;;;;;;0.00;0.00;;;21.00;99.90;;;;;;5065074;28;20372;-40
2023/06/04 06:25:15;;;;;;;0.10;0.10;;;21.20;99.90;;;;;;5070654;28;20017;-42
2023/06/04 06:27:41;;;;;;;0.00;0.00;;;21.20;99.90;;;;;;5070849;28;20025;-44
2023/06/04 06:30:08;;;;;;;0.10;0.10;;;21.50;99.90;;;;;;5070447;28;20039;-40
2023/06/04 06:32:34;;;;;;;0.00;0.00;;;21.80;99.90;;;;;;5070697;28;20051;-48
2023/06/04 06:35:00;;;;;;;0.00;0.00;;;22.30;98.20;;;;;;5070567;28;20086;-42
2023/06/04 06:37:26;;;;;;;0.00;0.00;;;22.60;98.20;;;;;;5070834;28;20032;-47
2023/06/04 06:39:52;;;;;;;0.00;0.00;;;22.30;95.80;;;;;;5070696;28;20028;-47
2023/06/04 06:42:18;;;;;;;0.00;0.00;;;22.90;96.10;;;;;;5070694;28;20031;-41
2023/06/04 06:44:46;;;;;;;0.00;0.00;;;23.30;94.10;;;;;;5070535;28;20418;-47
2023/06/04 06:47:15;;;;;;;0.00;0.00;;;23.70;94.30;;;;;;5070555;28;20027;-46
2023/06/04 06:49:41;;;;;;;;;;;24.20;93.00;;;;;;5070808;28;20027;-49
2023/06/04 06:52:06;;;;;;;0.00;0.00;;;24.30;90.70;;;;;;5070698;28;19908;-41
2023/06/04 06:54:32;;;;;;;0.00;0.00;;;24.70;91.10;;;;;;5070483;28;20024;-41
2023/06/04 06:56:58;;;;;;;0.00;0.00;;;25.20;90.60;;;;;;5070517;28;20028;-42
2023/06/04 06:59:25;;;;;;;0.00;0.00;;;25.30;86.00;;;;;;5070303;28;20464;-47
2023/06/04 07:01:50;;;;;;;0.00;0.00;;;25.40;81.20;;;;;;5070419;28;20020;-50
2023/06/04 07:04:17;;;;;;;0.00;0.00;;;25.50;78.30;;;;;;5070357;28;20050;-42
2023/06/04 07:06:43;;;;;;;0.00;0.00;;;25.70;79.70;;;;;;5070590;28;20129;-44
2023/06/04 07:09:09;;;;;;;0.00;0.00;;;26.10;82.00;;;;;;5070409;28;20130;-45
2023/06/04 07:11:35;;;;;;;0.00;0.00;;;26.60;80.10;;;;;;5070166;28;20032;-49
2023/06/04 07:14:02;;;;;;;0.00;0.00;;;26.70;76.40;;;;;;5070474;28;20025;-51
2023/06/04 07:16:28;;;;;;;0.00;0.00;;;26.90;75.70;;;;;;5070280;28;20020;-44
2023/06/04 07:18:54;;;;;;;0.10;0.10;;;27.30;77.60;;;;;;5070350;28;20119;-45
2023/06/04 07:21:21;;;;;;;0.00;0.00;;;27.50;73.70;;;;;;5073475;28;20595;-46
2023/06/04 07:23:49;;;;;;;0.25;0.25;;;27.40;71.20;;;;;;5074751;28;20033;-44
2023/06/04 07:26:15;;;;;;;0.00;0.00;;;27.20;69.40;;;;;;5074321;28;20748;-44
2023/06/04 07:28:41;;;;;;;0.00;0.00;;;27.50;71.00;;;;;;5074233;28;20387;-41
2023/06/04 07:31:07;;;;;;;0.10;0.10;;;27.40;68.70;;;;;;5074128;28;20044;-49
2023/06/04 07:33:33;;;;;;;0.00;0.00;;;27.40;68.40;;;;;;5074257;28;20468;-48
2023/06/04 07:35:58;;;;;;;0.00;0.00;;;27.70;70.30;;;;;;5074170;28;20460;-42
2023/06/04 07:38:24;;;;;;;0.10;0.10;;;27.70;70.20;;;;;;5074323;28;21715;-50
2023/06/04 07:40:50;;;;;;;0.00;0.00;;;27.30;69.20;;;;;;5074346;28;20036;-44
2023/06/04 07:43:16;;;;;;;0.00;0.00;;;27.50;68.60;;;;;;5073960;28;20401;-46
2023/06/04 07:45:41;;;;;;;0.00;0.00;;;27.80;71.70;;;;;;5073824;28;20127;-46
2023/06/04 07:48:10;;;;;;;0.00;0.00;;;28.10;66.90;;;;;;5074231;28;20079;-42
2023/06/04 07:50:36;;;;;;;0.00;0.00;;;27.80;65.00;;;;;;5073961;28;20043;-40
2023/06/04 07:53:01;;;;;;;0.00;0.00;;;28.10;67.60;;;;;;5073279;28;20107;-42
2023/06/04 07:55:27;;;;;;;0.00;0.00;;;28.10;67.50;;;;;;5073393;28;20031;-41
2023/06/04 07:57:53;;;;;;;0.00;0.00;;;28.00;67.80;;;;;;5070962;28;20082;-41
2023/06/04 08:00:19;;;;;;;0.00;0.00;;;27.90;66.40;;;;;;5073592;28;20028;-43
2023/06/04 08:02:45;;;;;;;0.00;0.00;;;28.10;65.30;;;;;;5073717;28;20043;-40
2023/06/04 08:05:13;;;;;;;0.25;0.15;;;28.00;67.60;;;;;;5073697;28;20024;-47
2023/06/04 08:07:39;;;;;;;0.00;0.00;;;28.30;67.60;;;;;;5073537;28;20020;-43
2023/06/04 08:10:06;;;;;;;0.00;0.00;;;28.40;67.60;;;;;;5073705;28;20044;-48
2023/06/04 08:12:32;;;;;;;0.00;0.00;;;28.40;64.40;;;;;;5073516;28;20108;-47
2023/06/04 08:14:57;;;;;;;0.00;0.00;;;28.70;67.50;;;;;;5073335;28;20150;-46
2023/06/04 08:17:23;;;;;;;0.00;0.00;;;28.60;64.50;;;;;;5073552;28;20021;-41
2023/06/04 08:19:49;;;;;;;0.10;0.10;;;28.50;64.70;;;;;;5073232;28;20021;-42
2023/06/04 08:22:15;;;;;;;0.30;0.20;;;28.60;64.20;;;;;;5073440;28;20036;-43
2023/06/04 08:24:40;;;;;;;0.00;0.00;;;28.70;64.20;;;;;;5073235;28;20024;-54
2023/06/04 08:27:08;;;;;;;0.00;0.00;;;28.70;66.60;;;;;;5073112;28;20491;-44
2023/06/04 08:29:35;;;;;;;0.00;0.00;;;28.90;64.50;;;;;;5073141;28;20028;-43
2023/06/04 08:32:01;;;;;;;0.00;0.00;;;28.90;64.80;;;;;;5072200;28;20050;-42
2023/06/04 08:34:27;;;;;;;0.00;0.00;;;28.90;65.50;;;;;;5073245;28;20032;-48
2023/06/04 08:36:53;;;;;;;0.00;0.00;;;29.00;64.00;;;;;;5073066;28;20108;-44
2023/06/04 08:39:18;;;;;;;0.00;0.00;;;29.00;64.50;;;;;;5073045;28;20028;-43
2023/06/04 08:42:00;;;;;;;0.00;0.00;;;28.90;64.00;;;;;;5072963;28;20040;-40
2023/06/04 08:44:28;;;;;;;0.00;0.00;;;29.20;66.20;;;;;;5065880;28;20542;-40
2023/06/04 08:47:02;;;;;;;0.00;0.00;;;29.10;65.70;;;;;;5069775;28;20029;-48
2023/06/04 08:49:33;;;;;;;0.00;0.00;;;29.20;63.50;;;;;;5062412;28;20024;-46
2023/06/04 08:51:58;;;;;;;0.00;0.00;;;28.30;60.20;;;;;;5072756;28;20067;-40
2023/06/04 08:54:25;;;;;;;0.10;0.10;;;28.30;64.20;;;;;;5072543;28;20044;-45
2023/06/04 08:56:51;;;;;;;0.00;0.00;;;28.40;64.50;;;;;;5072654;28;20033;-42
2023/06/04 08:59:17;;;;;;;0.00;0.00;;;28.40;64.10;;;;;;5072346;28;20035;-40
2023/06/04 09:01:44;;;;;;;0.00;0.00;;;28.80;65.00;;;;;;5059579;28;20417;-42
2023/06/04 09:04:11;;;;;;;0.03;0.03;;;28.70;63.10;;;;;;5063368;28;20028;-45
2023/06/04 09:06:38;;;;;;;0.17;0.10;;;28.70;65.80;;;;;;5072289;28;20025;-39
2023/06/04 09:09:09;;;;;;;0.00;0.00;;;28.80;65.00;;;;;;5072201;28;20016;-44
2023/06/04 09:11:52;;;;;;;0.10;0.10;;;29.10;64.70;;;;;;5071977;28;20040;-43
2023/06/04 09:14:19;;;;;;;0.00;0.00;;;29.20;61.50;;;;;;5072008;28;20024;-44
2023/06/04 09:16:52;;;;;;;0.00;0.00;;;28.80;62.20;;;;;;5072229;28;20016;-42
2023/06/04 09:19:18;;;;;;;0.00;0.00;;;28.60;63.40;;;;;;5072011;28;20429;-42
2023/06/04 09:21:49;;;;;;;0.10;0.10;;;28.70;64.80;;;;;;5072029;28;20483;-44
2023/06/04 09:24:14;;;;;;;0.10;0.10;;;29.00;61.90;;;;;;5071969;28;20492;-43
2023/06/04 09:26:40;;;;;;;0.00;0.00;;;29.00;61.40;;;;;;5071922;28;20024;-39
2023/06/04 09:29:06;;;;;;;0.00;0.00;;;29.20;64.10;;;;;;5071527;28;20178;-40
2023/06/04 09:31:37;;;;;;;0.00;0.00;;;29.30;62.60;;;;;;5071852;28;20032;-41
2023/06/04 09:34:03;;;;;;;0.00;0.00;;;29.50;64.00;;;;;;5071707;28;20025;-39
2023/06/04 09:36:36;;;;;;;0.00;0.00;;;29.60;64.90;;;;;;5070168;28;20020;-39
2023/06/04 09:39:15;;;;;;;0.00;0.00;;;29.50;62.80;;;;;;5070604;28;20033;-46
2023/06/04 09:41:41;;;;;;;0.10;0.10;;;29.50;61.80;;;;;;5071559;28;20122;-42
2023/06/04 09:44:10;;;;;;;0.00;0.00;;;29.70;63.60;;;;;;5068745;28;20036;-39
2023/06/04 09:46:36;;;;;;;0.05;0.05;;;29.70;62.90;;;;;;5066204;28;20042;-41
2023/06/04 09:49:04;;;;;;;0.10;0.10;;;29.80;61.20;;;;;;5070436;28;20084;-39
2023/06/04 09:51:31;;;;;;;0.03;0.03;;;29.70;60.50;;;;;;5071473;28;20119;-39
2023/06/04 09:53:59;;;;;;;0.00;0.00;;;29.60;60.10;;;;;;5071469;28;20541;-39
2023/06/04 09:56:26;;;;;;;0.00;0.00;;;28.80;63.00;;;;;;5071432;28;20029;-39
2023/06/04 09:58:56;;;;;;;0.10;0.10;;;28.80;61.30;;;;;;5071254;28;20078;-39
2023/06/04 10:01:26;;;;;;;0.10;0.10;;;28.80;60.60;;;;;;5071254;28;20032;-42
2023/06/04 10:03:56;;;;;;;0.10;0.10;;;28.50;61.90;;;;;;5071028;28;20031;-43
2023/06/04 10:06:22;;;;;;;0.05;0.05;;;28.90;62.10;;;;;;5071025;28;20546;-40
2023/06/04 10:08:50;;;;;;;0.10;0.10;;;29.40;63.00;;;;;;5071308;28;20024;-47
2023/06/04 10:11:29;;;;;;;0.00;0.00;;;29.60;60.80;;;;;;5070965;28;20036;-39
2023/06/04 10:14:02;;;;;;;0.03;0.03;;;29.70;64.10;;;;;;5071168;28;20025;-43
2023/06/04 10:16:30;;;;;;;0.00;0.00;;;29.80;62.10;;;;;;5070197;28;20040;-47
2023/06/04 10:18:57;;;;;;;0.00;0.00;;;29.00;58.20;;;;;;5071324;28;20099;-42
2023/06/04 10:21:23;;;;;;;0.10;0.10;;;28.90;61.10;;;;;;5071001;28;20012;-40
2023/06/04 10:23:50;;;;;;;0.20;0.20;;;28.40;58.20;;;;;;5070981;28;20403;-41
2023/06/04 10:26:16;;;;;;;0.10;0.10;;;27.90;58.40;;;;;;5070773;28;20337;-41
2023/06/04 10:28:42;;;;;;;0.00;0.00;;;27.70;62.80;;;;;;5071138;28;20032;-46
2023/06/04 10:31:12;;;;;;;0.00;0.00;;;27.70;63.10;;;;;;5068958;28;20113;-43
2023/06/04 10:33:39;;;;;;;0.00;0.00;;;28.20;64.50;;;;;;5069872;28;20029;-43
2023/06/04 10:36:21;;;;;;;0.00;0.00;;;28.40;61.30;;;;;;5070539;28;20100;-43
2023/06/04 10:38:55;;;;;;;0.00;0.00;;;28.40;61.60;;;;;;5070569;28;20036;-42
2023/06/04 10:41:21;;;;;;;0.10;0.10;;;28.50;61.70;;;;;;5070631;28;20113;-44
2023/06/04 10:43:49;;;;;;;0.00;0.00;;;28.30;63.30;;;;;;5070456;28;20036;-39
2023/06/04 10:46:17;;;;;;;0.10;0.10;;;28.80;62.10;;;;;;5070804;28;20165;-42
2023/06/04 10:48:50;;;;;;;0.00;0.00;;;28.70;61.70;;;;;;5070495;28;20479;-52
2023/06/04 10:51:28;;;;;;;0.00;0.00;;;27.90;57.00;;;;;;5070561;28;20178;-41
2023/06/04 10:53:53;;;;;;;0.00;0.00;;;28.20;61.40;;;;;;5070373;28;20108;-39
2023/06/04 10:56:33;;;;;;;0.00;0.00;;;28.40;60.20;;;;;;5070206;28;20180;-49
2023/06/04 10:59:00;;;;;;;0.00;0.00;;;28.30;58.60;;;;;;5067274;28;20024;-54
2023/06/04 11:01:29;;;;;;;0.00;0.00;;;27.90;58.30;;;;;;5069251;28;20029;-41
2023/06/04 11:03:55;;;;;;;0.00;0.00;;;28.00;60.70;;;;;;5070353;28;20020;-46
2023/06/04 11:06:22;;;;;;;0.00;0.00;;;28.30;59.90;;;;;;5070246;28;20079;-42
2023/06/04 11:08:48;;;;;;;0.00;0.00;;;28.40;58.30;;;;;;5070372;28;20052;-52
2023/06/04 11:11:15;;;;;;;0.00;0.00;;;27.90;57.50;;;;;;5067557;28;20037;-49
2023/06/04 11:13:42;;;;;;;0.00;0.00;;;27.80;57.90;;;;;;5055241;28;20028;-44
2023/06/04 11:16:17;;;;;;;0.00;0.00;;;28.00;60.20;;;;;;5066695;28;20117;-51
2023/06/04 11:18:43;;;;;;;0.00;0.00;;;27.60;57.90;;;;;;5070554;28;20064;-44
2023/06/04 11:21:14;;;;;;;0.00;0.00;;;27.30;59.40;;;;;;5070204;28;20071;-49
2023/06/04 11:23:40;;;;;;;0.00;0.00;;;27.40;60.10;;;;;;5070511;28;20032;-57
2023/06/04 11:26:06;;;;;;;0.00;0.00;;;27.50;62.60;;;;;;5070382;28;20055;-52
2023/06/04 11:28:32;;;;;;;0.00;0.00;;;27.80;59.60;;;;;;5070205;28;20024;-53
2023/06/04 11:31:05;;;;;;;0.00;0.00;;;27.60;58.50;;;;;;5070113;28;20575;-43
2023/06/04 11:33:43;;;;;;;0.00;0.00;;;27.90;60.30;;;;;;5069989;28;20032;-46
2023/06/04 11:36:09;;;;;;;0.00;0.00;;;27.80;56.30;;;;;;5062293;28;20037;-42
2023/06/04 11:38:34;;;;;;;0.17;0.17;;;28.10;57.40;;;;;;5069772;28;20032;-44
2023/06/04 11:41:03;;;;;;;0.00;0.00;;;28.00;58.20;;;;;;5070074;28;20395;-43
2023/06/04 11:43:29;;;;;;;0.10;0.10;;;28.30;62.00;;;;;;5070010;28;20023;-41
2023/06/04 11:45:55;;;;;;;0.00;0.00;;;28.30;57.90;;;;;;5069928;28;20040;-46
2023/06/04 11:48:21;;;;;;;0.00;0.00;;;28.10;57.60;;;;;;5069956;28;20029;-40
2023/06/04 11:50:46;;;;;;;0.00;0.00;;;28.30;59.40;;;;;;5069926;28;20106;-41
2023/06/04 11:53:12;;;;;;;0.00;0.00;;;27.60;55.90;;;;;;5069772;28;20174;-46
2023/06/04 11:55:39;;;;;;;0.03;0.03;;;27.40;56.50;;;;;;5070003;28;20612;-54
2023/06/04 11:58:05;;;;;;;0.10;0.10;;;27.50;57.90;;;;;;5070163;28;20020;-48
2023/06/04 12:00:30;;;;;;;0.10;0.10;;;27.70;59.70;;;;;;5069700;28;21743;-52
2023/06/04 12:02:57;;;;;;;0.10;0.10;;;27.60;56.40;;;;;;5070086;28;20028;-42
2023/06/04 12:05:29;;;;;;;0.00;0.00;;;27.50;58.90;;;;;;5069592;28;20566;-52
2023/06/04 12:08:09;;;;;;;0.00;0.00;;;27.50;58.80;;;;;;5073432;28;20012;-47
2023/06/04 12:10:42;;;;;;;0.10;0.10;;;27.50;61.40;;;;;;5073378;28;20045;-44
2023/06/04 12:13:08;;;;;;;0.00;0.00;;;27.50;58.50;;;;;;5073554;28;20481;-50
2023/06/04 12:15:34;;;;;;;0.00;0.00;;;27.20;58.70;;;;;;5073597;28;20024;-46
2023/06/04 12:18:00;;;;;;;0.05;0.05;;;27.30;59.10;;;;;;5073430;28;20035;-50
2023/06/04 12:20:39;;;;;;;0.10;0.10;;;26.50;57.60;;;;;;5073420;28;20086;-40
2023/06/04 12:23:06;;;;;;;0.10;0.10;;;26.30;60.20;;;;;;5073238;28;20032;-38
2023/06/04 12:25:32;;;;;;;0.00;0.00;;;26.50;60.80;;;;;;5062570;28;20104;-41
2023/06/04 12:27:58;;;;;;;0.10;0.10;;;26.40;60.10;;;;;;5073268;28;20032;-38
2023/06/04 12:30:35;;;;;;;0.00;0.00;;;26.30;60.00;;;;;;5073061;28;20476;-38
2023/06/04 12:33:01;;;;;;;0.10;0.10;;;26.40;61.10;;;;;;5072626;28;20063;-39
2023/06/04 12:35:27;;;;;;;0.05;0.05;;;26.50;61.40;;;;;;5059808;28;20064;-46
2023/06/04 12:37:52;;;;;;;0.00;0.00;;;26.40;59.00;;;;;;5070878;28;20566;-40
2023/06/04 12:40:18;;;;;;;0.10;0.10;;;25.90;58.40;;;;;;5071654;28;20023;-40
2023/06/04 12:42:43;;;;;;;0.10;0.10;;;25.80;60.10;;;;;;5072949;28;20029;-40
2023/06/04 12:45:11;;;;;;;0.10;0.10;;;25.90;59.80;;;;;;5072674;28;20040;-39
2023/06/04 12:47:36;;;;;;;0.10;0.10;;;25.70;59.30;;;;;;5068438;28;20025;-42